sensor_id;sensor_type;location;lat;lon;timestamp;temperature;humidity
39483;DHT22;25682;48.438;1.482;2023-02-15T00:01:36;20.10;47.50
39483;DHT22;25682;48.438;1.482;2023-02-15T00:04:02;20.10;47.50
39483;DHT22;25682;48.438;1.482;2023-02-15T00:06:28;20.10;47.50
39483;DHT22;25682;48.438;1.482;2023-02-15T00:08:55;20.10;47.40
39483;DHT22;25682;48.438;1.482;2023-02-15T00:11:21;20.10;47.40
39483;DHT22;25682;48.438;1.482;2023-02-15T00:14:17;20.00;47.30
39483;DHT22;25682;48.438;1.482;2023-02-15T00:16:44;20.00;47.30
39483;DHT22;25682;48.438;1.482;2023-02-15T00:19:11;20.00;47.30
39483;DHT22;25682;48.438;1.482;2023-02-15T00:21:38;20.00;47.30
39483;DHT22;25682;48.438;1.482;2023-02-15T00:24:06;20.00;47.30
39483;DHT22;25682;48.438;1.482;2023-02-15T00:26:32;20.00;47.30
39483;DHT22;25682;48.438;1.482;2023-02-15T00:28:58;20.00;47.30
39483;DHT22;25682;48.438;1.482;2023-02-15T00:31:25;20.00;47.20
39483;DHT22;25682;48.438;1.482;2023-02-15T00:33:51;20.00;47.20
39483;DHT22;25682;48.438;1.482;2023-02-15T00:36:17;20.00;47.20
39483;DHT22;25682;48.438;1.482;2023-02-15T00:38:42;20.00;47.20
39483;DHT22;25682;48.438;1.482;2023-02-15T00:41:09;20.00;47.10
39483;DHT22;25682;48.438;1.482;2023-02-15T00:43:35;19.90;47.10
39483;DHT22;25682;48.438;1.482;2023-02-15T00:46:02;20.00;47.10
39483;DHT22;25682;48.438;1.482;2023-02-15T00:48:29;19.90;47.10
39483;DHT22;25682;48.438;1.482;2023-02-15T00:50:57;19.90;47.00
39483;DHT22;25682;48.438;1.482;2023-02-15T00:53:24;19.90;47.00
39483;DHT22;25682;48.438;1.482;2023-02-15T00:55:50;19.90;46.90
39483;DHT22;25682;48.438;1.482;2023-02-15T00:58:16;19.90;46.90
39483;DHT22;25682;48.438;1.482;2023-02-15T01:00:46;19.90;46.80
39483;DHT22;25682;48.438;1.482;2023-02-15T01:03:14;19.90;46.80
39483;DHT22;25682;48.438;1.482;2023-02-15T01:05:40;19.90;46.80
39483;DHT22;25682;48.438;1.482;2023-02-15T01:08:06;19.90;46.80
39483;DHT22;25682;48.438;1.482;2023-02-15T01:10:32;19.90;46.80
39483;DHT22;25682;48.438;1.482;2023-02-15T01:12:58;19.90;46.80
39483;DHT22;25682;48.438;1.482;2023-02-15T01:15:24;19.90;46.80
39483;DHT22;25682;48.438;1.482;2023-02-15T01:17:50;19.80;46.70
39483;DHT22;25682;48.438;1.482;2023-02-15T01:20:25;19.90;46.80
39483;DHT22;25682;48.438;1.482;2023-02-15T01:22:51;19.90;46.70
39483;DHT22;25682;48.438;1.482;2023-02-15T01:25:18;19.90;46.70
39483;DHT22;25682;48.438;1.482;2023-02-15T01:27:44;19.90;46.70
39483;DHT22;25682;48.438;1.482;2023-02-15T01:30:10;19.80;46.60
39483;DHT22;25682;48.438;1.482;2023-02-15T01:32:36;19.80;46.60
39483;DHT22;25682;48.438;1.482;2023-02-15T01:35:02;19.80;47.30
39483;DHT22;25682;48.438;1.482;2023-02-15T01:37:30;19.80;46.60
39483;DHT22;25682;48.438;1.482;2023-02-15T01:39:56;19.80;46.60
39483;DHT22;25682;48.438;1.482;2023-02-15T01:42:27;19.80;46.60
39483;DHT22;25682;48.438;1.482;2023-02-15T01:45:36;19.80;46.60
39483;DHT22;25682;48.438;1.482;2023-02-15T01:47:47;19.80;46.50
39483;DHT22;25682;48.438;1.482;2023-02-15T01:50:34;19.80;46.60
39483;DHT22;25682;48.438;1.482;2023-02-15T01:58:28;19.70;46.50
39483;DHT22;25682;48.438;1.482;2023-02-15T02:00:57;19.80;46.60
39483;DHT22;25682;48.438;1.482;2023-02-15T02:06:18;19.80;46.50
39483;DHT22;25682;48.438;1.482;2023-02-15T02:08:44;19.70;46.50
39483;DHT22;25682;48.438;1.482;2023-02-15T02:11:11;19.70;46.50
39483;DHT22;25682;48.438;1.482;2023-02-15T02:13:42;19.70;46.50
39483;DHT22;25682;48.438;1.482;2023-02-15T02:16:20;19.70;46.50
39483;DHT22;25682;48.438;1.482;2023-02-15T02:30:21;19.70;46.40
39483;DHT22;25682;48.438;1.482;2023-02-15T02:43:04;19.60;46.30
39483;DHT22;25682;48.438;1.482;2023-02-15T02:45:44;19.60;46.30
39483;DHT22;25682;48.438;1.482;2023-02-15T02:48:21;19.70;46.30
39483;DHT22;25682;48.438;1.482;2023-02-15T02:50:48;19.60;46.20
39483;DHT22;25682;48.438;1.482;2023-02-15T02:53:14;19.60;46.30
39483;DHT22;25682;48.438;1.482;2023-02-15T02:56:14;19.60;46.30
39483;DHT22;25682;48.438;1.482;2023-02-15T02:58:37;19.60;46.30
39483;DHT22;25682;48.438;1.482;2023-02-15T03:01:13;19.60;46.20
39483;DHT22;25682;48.438;1.482;2023-02-15T03:03:43;19.60;46.20
39483;DHT22;25682;48.438;1.482;2023-02-15T03:06:12;19.60;46.20
39483;DHT22;25682;48.438;1.482;2023-02-15T03:08:45;19.60;46.20
39483;DHT22;25682;48.438;1.482;2023-02-15T03:11:12;19.60;46.10
39483;DHT22;25682;48.438;1.482;2023-02-15T03:13:38;19.50;46.10
39483;DHT22;25682;48.438;1.482;2023-02-15T03:16:05;19.50;46.00
39483;DHT22;25682;48.438;1.482;2023-02-15T03:19:05;19.50;46.00
39483;DHT22;25682;48.438;1.482;2023-02-15T03:21:50;19.50;46.00
39483;DHT22;25682;48.438;1.482;2023-02-15T03:24:44;19.50;45.90
39483;DHT22;25682;48.438;1.482;2023-02-15T03:27:20;19.50;46.00
39483;DHT22;25682;48.438;1.482;2023-02-15T03:29:53;19.50;45.90
39483;DHT22;25682;48.438;1.482;2023-02-15T03:32:20;19.50;46.00
39483;DHT22;25682;48.438;1.482;2023-02-15T03:34:47;19.50;45.90
39483;DHT22;25682;48.438;1.482;2023-02-15T03:40:06;19.50;45.90
39483;DHT22;25682;48.438;1.482;2023-02-15T03:45:57;19.50;45.80
39483;DHT22;25682;48.438;1.482;2023-02-15T03:48:35;19.50;45.80
39483;DHT22;25682;48.438;1.482;2023-02-15T03:51:20;19.50;45.80
39483;DHT22;25682;48.438;1.482;2023-02-15T03:54:03;19.40;45.70
39483;DHT22;25682;48.438;1.482;2023-02-15T03:56:30;19.40;45.70
39483;DHT22;25682;48.438;1.482;2023-02-15T03:58:58;19.40;45.60
39483;DHT22;25682;48.438;1.482;2023-02-15T04:02:13;19.40;45.60
39483;DHT22;25682;48.438;1.482;2023-02-15T04:04:46;19.40;45.60
39483;DHT22;25682;48.438;1.482;2023-02-15T04:07:12;19.40;45.60
39483;DHT22;25682;48.438;1.482;2023-02-15T04:09:38;19.40;45.60
39483;DHT22;25682;48.438;1.482;2023-02-15T04:12:22;19.40;45.50
39483;DHT22;25682;48.438;1.482;2023-02-15T04:14:48;19.30;45.50
39483;DHT22;25682;48.438;1.482;2023-02-15T04:17:32;19.40;45.50
39483;DHT22;25682;48.438;1.482;2023-02-15T04:19:58;19.40;45.50
39483;DHT22;25682;48.438;1.482;2023-02-15T04:22:42;19.40;45.50
39483;DHT22;25682;48.438;1.482;2023-02-15T04:25:26;19.40;45.50
39483;DHT22;25682;48.438;1.482;2023-02-15T04:27:53;19.40;45.50
39483;DHT22;25682;48.438;1.482;2023-02-15T04:30:21;19.40;45.40
39483;DHT22;25682;48.438;1.482;2023-02-15T04:32:47;19.40;45.40
39483;DHT22;25682;48.438;1.482;2023-02-15T04:35:14;19.40;45.40
39483;DHT22;25682;48.438;1.482;2023-02-15T04:37:40;19.40;45.40
39483;DHT22;25682;48.438;1.482;2023-02-15T04:40:09;19.40;45.50
39483;DHT22;25682;48.438;1.482;2023-02-15T04:42:35;19.40;45.30
39483;DHT22;25682;48.438;1.482;2023-02-15T04:45:01;19.40;45.30
39483;DHT22;25682;48.438;1.482;2023-02-15T04:47:26;19.40;45.20
39483;DHT22;25682;48.438;1.482;2023-02-15T04:49:52;19.40;45.20
39483;DHT22;25682;48.438;1.482;2023-02-15T04:52:18;19.40;45.20
39483;DHT22;25682;48.438;1.482;2023-02-15T04:54:44;19.40;45.10
39483;DHT22;25682;48.438;1.482;2023-02-15T04:57:10;19.40;45.10
39483;DHT22;25682;48.438;1.482;2023-02-15T04:59:35;19.40;45.10
39483;DHT22;25682;48.438;1.482;2023-02-15T05:02:01;19.40;45.10
39483;DHT22;25682;48.438;1.482;2023-02-15T05:04:27;19.40;45.10
39483;DHT22;25682;48.438;1.482;2023-02-15T05:06:52;19.40;45.10
39483;DHT22;25682;48.438;1.482;2023-02-15T05:09:18;19.40;45.10
39483;DHT22;25682;48.438;1.482;2023-02-15T05:11:44;19.40;45.10
39483;DHT22;25682;48.438;1.482;2023-02-15T05:14:09;19.40;45.10
39483;DHT22;25682;48.438;1.482;2023-02-15T05:16:35;19.40;45.10
39483;DHT22;25682;48.438;1.482;2023-02-15T05:19:01;19.40;45.10
39483;DHT22;25682;48.438;1.482;2023-02-15T05:21:26;19.40;45.10
39483;DHT22;25682;48.438;1.482;2023-02-15T05:23:52;19.40;45.10
39483;DHT22;25682;48.438;1.482;2023-02-15T05:26:20;19.40;45.00
39483;DHT22;25682;48.438;1.482;2023-02-15T05:29:04;19.40;45.00
39483;DHT22;25682;48.438;1.482;2023-02-15T05:31:31;19.40;45.00
39483;DHT22;25682;48.438;1.482;2023-02-15T05:33:57;19.40;45.10
39483;DHT22;25682;48.438;1.482;2023-02-15T05:36:22;19.40;45.00
39483;DHT22;25682;48.438;1.482;2023-02-15T05:38:48;19.40;45.10
39483;DHT22;25682;48.438;1.482;2023-02-15T05:41:14;19.40;45.00
39483;DHT22;25682;48.438;1.482;2023-02-15T05:43:39;19.40;45.00
39483;DHT22;25682;48.438;1.482;2023-02-15T05:46:06;19.40;45.00
39483;DHT22;25682;48.438;1.482;2023-02-15T05:48:32;19.40;45.00
39483;DHT22;25682;48.438;1.482;2023-02-15T05:53:25;19.40;45.00
39483;DHT22;25682;48.438;1.482;2023-02-15T05:55:51;19.40;45.00
39483;DHT22;25682;48.438;1.482;2023-02-15T05:58:16;19.40;45.00
39483;DHT22;25682;48.438;1.482;2023-02-15T06:00:42;19.40;45.00
39483;DHT22;25682;48.438;1.482;2023-02-15T06:03:07;19.40;45.00
39483;DHT22;25682;48.438;1.482;2023-02-15T06:05:33;19.40;45.00
39483;DHT22;25682;48.438;1.482;2023-02-15T06:07:59;19.40;45.00
39483;DHT22;25682;48.438;1.482;2023-02-15T06:10:24;19.40;45.00
39483;DHT22;25682;48.438;1.482;2023-02-15T06:12:50;19.40;45.00
39483;DHT22;25682;48.438;1.482;2023-02-15T06:15:15;19.40;45.00
39483;DHT22;25682;48.438;1.482;2023-02-15T06:17:42;19.40;45.00
39483;DHT22;25682;48.438;1.482;2023-02-15T06:20:08;19.40;45.00
39483;DHT22;25682;48.438;1.482;2023-02-15T06:22:34;19.40;45.60
39483;DHT22;25682;48.438;1.482;2023-02-15T06:25:01;19.40;44.90
39483;DHT22;25682;48.438;1.482;2023-02-15T06:27:26;19.40;45.00
39483;DHT22;25682;48.438;1.482;2023-02-15T06:29:52;19.40;44.90
39483;DHT22;25682;48.438;1.482;2023-02-15T06:32:18;19.40;44.90
39483;DHT22;25682;48.438;1.482;2023-02-15T06:34:43;19.40;44.90
39483;DHT22;25682;48.438;1.482;2023-02-15T06:37:09;19.40;44.90
39483;DHT22;25682;48.438;1.482;2023-02-15T06:39:34;19.40;44.90
39483;DHT22;25682;48.438;1.482;2023-02-15T06:42:00;19.40;44.90
39483;DHT22;25682;48.438;1.482;2023-02-15T06:44:25;19.40;44.90
39483;DHT22;25682;48.438;1.482;2023-02-15T06:46:51;19.40;44.90
39483;DHT22;25682;48.438;1.482;2023-02-15T06:49:17;19.40;44.90
39483;DHT22;25682;48.438;1.482;2023-02-15T06:51:42;19.40;44.90
39483;DHT22;25682;48.438;1.482;2023-02-15T06:54:08;19.40;45.00
39483;DHT22;25682;48.438;1.482;2023-02-15T06:56:34;19.40;45.00
39483;DHT22;25682;48.438;1.482;2023-02-15T06:58:59;19.40;45.00
39483;DHT22;25682;48.438;1.482;2023-02-15T07:01:25;19.40;45.00
39483;DHT22;25682;48.438;1.482;2023-02-15T07:03:50;19.40;45.00
39483;DHT22;25682;48.438;1.482;2023-02-15T07:06:16;19.40;45.00
39483;DHT22;25682;48.438;1.482;2023-02-15T07:08:42;19.40;45.10
39483;DHT22;25682;48.438;1.482;2023-02-15T07:11:07;19.40;45.30
39483;DHT22;25682;48.438;1.482;2023-02-15T07:13:51;19.40;45.40
39483;DHT22;25682;48.438;1.482;2023-02-15T07:16:21;19.40;45.60
39483;DHT22;25682;48.438;1.482;2023-02-15T07:18:47;19.50;46.00
39483;DHT22;25682;48.438;1.482;2023-02-15T07:21:12;19.50;46.30
39483;DHT22;25682;48.438;1.482;2023-02-15T07:23:39;19.50;46.40
39483;DHT22;25682;48.438;1.482;2023-02-15T07:26:06;19.50;46.50
39483;DHT22;25682;48.438;1.482;2023-02-15T07:28:32;19.60;46.80
39483;DHT22;25682;48.438;1.482;2023-02-15T07:30:58;19.60;46.90
39483;DHT22;25682;48.438;1.482;2023-02-15T07:33:26;19.60;47.20
39483;DHT22;25682;48.438;1.482;2023-02-15T07:35:54;19.60;47.30
39483;DHT22;25682;48.438;1.482;2023-02-15T07:38:21;19.60;47.20
39483;DHT22;25682;48.438;1.482;2023-02-15T07:40:47;19.60;47.10
39483;DHT22;25682;48.438;1.482;2023-02-15T07:43:13;19.60;47.00
39483;DHT22;25682;48.438;1.482;2023-02-15T07:45:39;19.60;47.00
39483;DHT22;25682;48.438;1.482;2023-02-15T07:48:05;19.60;46.90
39483;DHT22;25682;48.438;1.482;2023-02-15T07:50:32;19.70;46.40
39483;DHT22;25682;48.438;1.482;2023-02-15T07:52:57;19.70;46.70
39483;DHT22;25682;48.438;1.482;2023-02-15T07:55:23;19.70;46.70
39483;DHT22;25682;48.438;1.482;2023-02-15T07:57:51;19.70;46.70
39483;DHT22;25682;48.438;1.482;2023-02-15T08:00:18;19.70;46.60
39483;DHT22;25682;48.438;1.482;2023-02-15T08:02:50;19.70;46.40
39483;DHT22;25682;48.438;1.482;2023-02-15T08:05:36;19.70;46.30
39483;DHT22;25682;48.438;1.482;2023-02-15T08:08:02;19.70;46.30
39483;DHT22;25682;48.438;1.482;2023-02-15T08:10:28;19.80;46.30
39483;DHT22;25682;48.438;1.482;2023-02-15T08:13:12;19.80;46.10
39483;DHT22;25682;48.438;1.482;2023-02-15T08:15:38;19.80;46.10
39483;DHT22;25682;48.438;1.482;2023-02-15T08:18:04;19.80;46.00
39483;DHT22;25682;48.438;1.482;2023-02-15T08:20:29;19.80;45.90
39483;DHT22;25682;48.438;1.482;2023-02-15T08:22:55;19.80;45.80
39483;DHT22;25682;48.438;1.482;2023-02-15T08:25:21;19.80;45.80
39483;DHT22;25682;48.438;1.482;2023-02-15T08:27:46;19.80;45.80
39483;DHT22;25682;48.438;1.482;2023-02-15T08:30:12;19.80;45.90
39483;DHT22;25682;48.438;1.482;2023-02-15T08:32:39;19.80;46.00
39483;DHT22;25682;48.438;1.482;2023-02-15T08:35:05;19.80;46.10
39483;DHT22;25682;48.438;1.482;2023-02-15T08:37:31;19.80;46.00
39483;DHT22;25682;48.438;1.482;2023-02-15T08:39:56;19.80;45.90
39483;DHT22;25682;48.438;1.482;2023-02-15T08:42:22;19.80;45.90
39483;DHT22;25682;48.438;1.482;2023-02-15T08:44:47;19.80;46.00
39483;DHT22;25682;48.438;1.482;2023-02-15T08:47:15;19.80;45.90
39483;DHT22;25682;48.438;1.482;2023-02-15T08:49:41;19.80;46.30
39483;DHT22;25682;48.438;1.482;2023-02-15T08:52:07;19.90;46.60
39483;DHT22;25682;48.438;1.482;2023-02-15T08:54:32;19.90;47.10
39483;DHT22;25682;48.438;1.482;2023-02-15T08:56:58;19.90;47.60
39483;DHT22;25682;48.438;1.482;2023-02-15T08:59:24;19.90;47.60
39483;DHT22;25682;48.438;1.482;2023-02-15T09:01:52;20.00;47.90
39483;DHT22;25682;48.438;1.482;2023-02-15T09:04:18;19.90;48.20
